Time;durP1;ratioP1;P1;durP2;ratioP2;P2;SDS_P1;SDS_P2;PMS_P1;PMS_P2;Temp;Humidity;BMP_temperature;BMP_pressure;BME280_temperature;BME280_humidity;BME280_pressure;Samples;Min_cycle;Max_cycle;Signal;HPM_P1;HPM_P2
2021/05/25 00:00:19;;;;;;;1.15;0.30;;;9.60;99.90;;;;;;4948839;29;20040;-83
2021/05/25 00:02:47;;;;;;;1.27;0.43;;;9.60;99.90;;;;;;4950179;29;20039;-81
2021/05/25 00:05:32;;;;;;;1.33;0.50;;;9.50;99.90;;;;;;4948579;29;20039;-82
2021/05/25 00:07:59;;;;;;;0.93;0.40;;;9.50;99.90;;;;;;4860115;29;20044;-82
2021/05/25 00:10:26;;;;;;;3.60;0.60;;;9.50;99.90;;;;;;4875659;29;20053;-81
2021/05/25 00:12:52;;;;;;;4.03;0.63;;;9.50;99.90;;;;;;4875110;29;20049;-81
2021/05/25 00:15:20;;;;;;;1.83;0.60;;;9.50;99.90;;;;;;4891293;29;20037;-81
2021/05/25 00:17:47;;;;;;;2.47;0.70;;;9.50;99.90;;;;;;4875427;29;20213;-82
2021/05/25 00:20:15;;;;;;;1.48;0.60;;;9.50;99.90;;;;;;4859710;29;20527;-84
2021/05/25 00:22:40;;;;;;;2.03;0.63;;;9.50;99.90;;;;;;4859904;29;20033;-82
2021/05/25 00:25:09;;;;;;;1.65;0.60;;;9.50;99.90;;;;;;4890792;29;20056;-81
2021/05/25 00:27:35;;;;;;;1.50;0.60;;;9.40;99.90;;;;;;4859609;29;20037;-82
2021/05/25 00:30:01;;;;;;;2.00;0.50;;;9.50;99.90;;;;;;4875111;29;20053;-83
2021/05/25 00:32:27;;;;;;;1.88;0.68;;;9.40;99.90;;;;;;4859546;29;20037;-83
2021/05/25 00:34:52;;;;;;;3.85;0.60;;;9.40;99.90;;;;;;4890676;29;20037;-83
2021/05/25 00:37:18;;;;;;;1.73;0.60;;;9.40;99.90;;;;;;4890354;29;20037;-82
2021/05/25 00:39:43;;;;;;;2.15;0.52;;;9.40;99.90;;;;;;4890593;29;20037;-82
2021/05/25 00:42:09;;;;;;;2.47;0.70;;;9.40;99.90;;;;;;4890568;29;20613;-82
2021/05/25 00:44:35;;;;;;;2.50;0.90;;;9.40;99.90;;;;;;4895948;29;20400;-82
2021/05/25 00:47:00;;;;;;;2.15;1.10;;;9.40;99.90;;;;;;4932335;29;20043;-81
2021/05/25 00:49:26;;;;;;;4.53;1.38;;;9.50;99.90;;;;;;4949168;29;20034;-82
2021/05/25 00:51:51;;;;;;;2.92;1.02;;;9.50;99.90;;;;;;4949492;29;20393;-82
2021/05/25 00:54:17;;;;;;;2.28;1.27;;;9.50;99.90;;;;;;4948114;29;20031;-81
2021/05/25 00:56:43;;;;;;;3.92;2.50;;;9.40;99.90;;;;;;4949216;29;20488;-82
2021/05/25 00:59:09;;;;;;;2.80;1.50;;;9.30;99.90;;;;;;4931980;29;20036;-81
2021/05/25 01:01:35;;;;;;;2.35;1.10;;;9.40;99.90;;;;;;4932113;29;20036;-81
2021/05/25 01:04:01;;;;;;;3.17;1.25;;;9.30;99.90;;;;;;4947819;29;20122;-82
2021/05/25 01:06:26;;;;;;;1.75;0.93;;;9.30;99.90;;;;;;4947267;29;20044;-81
2021/05/25 01:08:52;;;;;;;1.90;0.65;;;9.30;99.90;;;;;;4946673;29;20031;-84
2021/05/25 01:11:19;;;;;;;1.60;0.47;;;9.30;99.90;;;;;;4931718;29;20420;-84
2021/05/25 01:13:52;;;;;;;1.25;0.30;;;9.30;99.90;;;;;;4947590;29;20036;-83
2021/05/25 01:16:21;;;;;;;1.38;0.40;;;9.30;99.90;;;;;;4947701;29;20036;-83
2021/05/25 01:18:46;;;;;;;1.88;0.40;;;9.20;99.90;;;;;;4947398;29;20032;-82
2021/05/25 01:21:13;;;;;;;2.08;0.50;;;9.30;99.90;;;;;;4947394;29;20058;-79
2021/05/25 01:23:39;;;;;;;1.77;0.47;;;9.10;99.90;;;;;;4947311;29;20473;-82
2021/05/25 01:26:06;;;;;;;2.00;0.50;;;9.10;99.90;;;;;;4931336;29;20074;-80
2021/05/25 01:28:33;;;;;;;1.85;0.52;;;9.20;99.90;;;;;;4947156;29;20122;-81
2021/05/25 01:31:00;;;;;;;2.92;0.40;;;9.10;99.90;;;;;;4947221;29;20059;-81
2021/05/25 01:33:31;;;;;;;1.33;0.50;;;9.10;99.90;;;;;;4947150;29;20035;-82
2021/05/25 01:35:58;;;;;;;1.90;0.70;;;9.10;99.90;;;;;;4946835;29;20452;-80
2021/05/25 01:38:25;;;;;;;1.85;0.80;;;9.00;99.90;;;;;;4948379;29;20034;-83
2021/05/25 01:40:53;;;;;;;1.70;0.63;;;9.10;99.90;;;;;;4948333;29;20123;-82
2021/05/25 01:43:19;;;;;;;1.55;0.60;;;9.00;99.90;;;;;;4931227;29;20131;-81
2021/05/25 01:45:45;;;;;;;3.15;0.57;;;9.00;99.90;;;;;;4948360;29;20107;-81
2021/05/25 01:48:11;;;;;;;1.23;0.45;;;8.90;99.90;;;;;;4948179;29;20047;-82
2021/05/25 01:50:39;;;;;;;2.47;0.57;;;9.00;99.90;;;;;;4962799;29;20130;-81
2021/05/25 01:53:15;;;;;;;1.55;0.40;;;8.90;99.90;;;;;;4948176;29;20207;-81
2021/05/25 01:55:44;;;;;;;0.95;0.40;;;8.80;99.90;;;;;;4947237;29;20082;-81
2021/05/25 01:58:22;;;;;;;1.77;0.32;;;8.90;99.90;;;;;;4948095;29;20120;-82
2021/05/25 02:01:01;;;;;;;1.85;0.35;;;8.80;99.90;;;;;;4948275;29;20047;-83
2021/05/25 02:03:27;;;;;;;1.17;0.40;;;8.70;99.90;;;;;;4948138;29;20080;-82
2021/05/25 02:05:53;;;;;;;1.55;0.40;;;8.70;99.90;;;;;;4962762;29;20040;-84
2021/05/25 02:08:21;;;;;;;1.77;0.40;;;8.80;99.90;;;;;;4962793;29;20059;-81
2021/05/25 02:10:47;;;;;;;1.08;0.32;;;8.70;99.90;;;;;;4948216;29;20036;-79
2021/05/25 02:13:24;;;;;;;1.90;0.30;;;8.60;99.90;;;;;;4946768;29;20082;-81
2021/05/25 02:15:54;;;;;;;1.10;0.40;;;8.60;99.90;;;;;;4962842;29;20028;-83
2021/05/25 02:18:22;;;;;;;1.20;0.40;;;8.50;99.90;;;;;;4948322;29;20110;-83
2021/05/25 02:20:51;;;;;;;1.83;0.60;;;8.40;99.90;;;;;;4964149;28;20128;-81
2021/05/25 02:23:17;;;;;;;1.63;0.50;;;8.30;99.90;;;;;;4951980;29;20028;-81
2021/05/25 02:25:43;;;;;;;1.30;0.50;;;8.20;99.90;;;;;;4951645;29;20066;-80
2021/05/25 02:28:11;;;;;;;1.83;0.50;;;8.20;99.90;;;;;;4951679;29;20032;-81
2021/05/25 02:30:38;;;;;;;2.55;0.50;;;8.10;99.90;;;;;;4952667;29;20208;-82
2021/05/25 02:33:07;;;;;;;2.00;0.57;;;8.10;99.90;;;;;;4951664;29;20469;-81
2021/05/25 02:35:33;;;;;;;2.05;0.40;;;8.00;99.90;;;;;;4967540;29;20031;-84
2021/05/25 02:37:59;;;;;;;2.13;0.40;;;8.00;99.90;;;;;;4950495;29;20028;-83
2021/05/25 02:40:25;;;;;;;1.17;0.30;;;7.90;99.90;;;;;;4951535;29;20496;-82
2021/05/25 02:42:52;;;;;;;1.40;0.35;;;7.90;99.90;;;;;;4951616;29;20024;-82
2021/05/25 02:45:18;;;;;;;1.90;0.40;;;7.90;99.90;;;;;;4951494;29;20040;-83
2021/05/25 02:47:44;;;;;;;1.33;0.40;;;8.00;99.90;;;;;;4951333;29;20495;-82
2021/05/25 02:50:11;;;;;;;2.03;0.38;;;7.90;99.90;;;;;;4951158;29;20023;-81
2021/05/25 02:52:39;;;;;;;2.08;0.40;;;8.00;99.90;;;;;;4951236;29;20110;-81
2021/05/25 02:55:07;;;;;;;1.88;0.30;;;8.00;99.90;;;;;;4949928;29;20040;-81
2021/05/25 02:57:32;;;;;;;1.45;0.30;;;7.90;99.90;;;;;;4934008;29;20031;-81
2021/05/25 02:59:58;;;;;;;2.65;0.40;;;7.80;99.90;;;;;;4951074;29;20032;-81
2021/05/25 03:02:23;;;;;;;1.17;0.40;;;7.80;99.90;;;;;;4949924;29;20060;-81
2021/05/25 03:04:49;;;;;;;1.67;0.30;;;7.80;99.90;;;;;;4950952;29;20039;-80
2021/05/25 03:07:15;;;;;;;1.48;0.40;;;7.80;99.90;;;;;;4950898;29;20024;-80
2021/05/25 03:09:41;;;;;;;2.92;0.40;;;7.60;99.90;;;;;;4965729;29;20415;-80
2021/05/25 03:12:07;;;;;;;2.90;0.45;;;7.60;99.90;;;;;;4949604;29;20044;-82
2021/05/25 03:14:32;;;;;;;2.10;0.40;;;7.50;99.90;;;;;;4934030;29;20032;-81
2021/05/25 03:16:58;;;;;;;0.93;0.30;;;7.50;99.90;;;;;;4933897;29;20090;-81
2021/05/25 03:19:24;;;;;;;1.45;0.40;;;7.50;99.90;;;;;;4966698;28;20036;-81
2021/05/25 03:21:52;;;;;;;1.60;0.50;;;7.50;99.90;;;;;;4935314;29;20051;-81
2021/05/25 03:24:17;;;;;;;5.28;1.70;;;7.50;99.90;;;;;;4967269;29;20047;-81
2021/05/25 03:26:43;;;;;;;1.30;0.60;;;7.60;99.90;;;;;;4951047;29;20043;-81
2021/05/25 03:29:08;;;;;;;2.13;0.40;;;7.60;99.90;;;;;;4949950;29;20027;-82
2021/05/25 03:31:35;;;;;;;1.50;0.40;;;7.60;99.90;;;;;;4948855;29;20036;-80
2021/05/25 03:34:02;;;;;;;1.50;0.40;;;7.60;99.90;;;;;;4933282;29;20035;-80
2021/05/25 03:36:28;;;;;;;2.65;0.45;;;7.60;99.90;;;;;;4949318;29;20032;-81
2021/05/25 03:38:53;;;;;;;1.40;0.40;;;7.60;99.90;;;;;;4933267;29;20098;-81
2021/05/25 03:41:19;;;;;;;1.10;0.35;;;7.60;99.90;;;;;;4965274;29;20028;-81
2021/05/25 03:43:46;;;;;;;1.63;0.35;;;7.60;99.90;;;;;;4965247;29;20035;-81
2021/05/25 03:46:11;;;;;;;0.98;0.30;;;7.50;99.90;;;;;;4949070;29;20071;-80
2021/05/25 03:48:37;;;;;;;1.60;0.30;;;7.60;99.90;;;;;;4949126;29;20066;-80
2021/05/25 03:51:02;;;;;;;1.38;0.32;;;7.60;99.90;;;;;;4949269;29;20063;-81
2021/05/25 03:53:28;;;;;;;1.63;0.50;;;7.60;99.90;;;;;;4933130;29;20036;-81
2021/05/25 03:56:05;;;;;;;2.95;0.40;;;7.60;99.90;;;;;;4932848;29;20062;-80
2021/05/25 03:58:48;;;;;;;2.08;0.50;;;7.70;99.90;;;;;;4949752;29;20422;-80
2021/05/25 04:01:19;;;;;;;2.80;0.40;;;7.70;99.90;;;;;;4948349;29;20040;-80
2021/05/25 04:03:46;;;;;;;2.70;0.50;;;7.80;99.90;;;;;;4948331;29;20056;-80
2021/05/25 04:06:12;;;;;;;2.10;0.70;;;7.80;99.90;;;;;;4949107;29;20060;-80
2021/05/25 04:08:38;;;;;;;3.17;0.50;;;7.80;99.90;;;;;;4949236;29;20032;-79
2021/05/25 04:11:04;;;;;;;2.20;0.50;;;7.80;99.90;;;;;;4949335;29;20040;-80
2021/05/25 04:13:30;;;;;;;1.52;0.50;;;7.90;99.90;;;;;;4948975;29;20077;-79
2021/05/25 04:15:55;;;;;;;2.53;0.50;;;7.90;99.90;;;;;;4949241;29;20023;-79
2021/05/25 04:18:21;;;;;;;1.80;0.40;;;7.90;99.90;;;;;;4949009;29;20023;-79
2021/05/25 04:20:47;;;;;;;1.98;0.40;;;8.00;99.90;;;;;;4931836;29;20027;-80
2021/05/25 04:23:13;;;;;;;3.00;0.50;;;8.00;99.90;;;;;;4949139;29;20461;-80
2021/05/25 04:25:39;;;;;;;2.83;0.60;;;8.00;99.90;;;;;;4963858;29;20054;-81
2021/05/25 04:28:05;;;;;;;2.03;0.45;;;8.00;99.90;;;;;;4949308;29;20028;-81
2021/05/25 04:30:31;;;;;;;2.13;0.50;;;8.00;99.90;;;;;;4949060;29;20043;-81
2021/05/25 04:32:57;;;;;;;2.13;0.40;;;8.00;99.90;;;;;;4948770;29;20024;-81
2021/05/25 04:35:22;;;;;;;2.67;0.43;;;8.10;99.90;;;;;;4948829;29;20043;-80
2021/05/25 04:37:51;;;;;;;1.52;0.40;;;8.20;99.90;;;;;;4948686;29;20028;-81
2021/05/25 04:40:17;;;;;;;1.52;0.40;;;8.20;99.90;;;;;;4948515;29;20036;-81
2021/05/25 04:42:42;;;;;;;1.35;0.47;;;8.10;99.90;;;;;;4948642;29;20473;-81
2021/05/25 04:45:09;;;;;;;2.20;0.50;;;8.20;99.90;;;;;;4963118;29;20111;-80
2021/05/25 04:47:35;;;;;;;3.22;0.60;;;8.20;99.90;;;;;;4948482;29;20036;-81
2021/05/25 04:50:06;;;;;;;2.60;0.50;;;8.20;99.90;;;;;;4948668;29;20175;-80
2021/05/25 04:52:33;;;;;;;3.17;0.80;;;8.20;99.90;;;;;;4947005;29;20039;-80
2021/05/25 04:55:00;;;;;;;2.03;0.52;;;8.20;99.90;;;;;;4948449;29;20111;-81
2021/05/25 04:57:26;;;;;;;2.42;0.60;;;8.30;99.90;;;;;;4948298;29;20051;-81
2021/05/25 04:59:52;;;;;;;2.10;0.50;;;8.30;99.90;;;;;;4948440;29;20032;-81
2021/05/25 05:02:18;;;;;;;4.78;0.73;;;8.40;99.90;;;;;;4962924;29;20046;-79
2021/05/25 05:04:44;;;;;;;2.28;0.60;;;8.40;99.90;;;;;;4927569;29;20051;-80
2021/05/25 05:07:10;;;;;;;2.05;0.60;;;8.40;99.90;;;;;;4943542;29;20130;-80
2021/05/25 05:09:36;;;;;;;1.40;0.43;;;8.50;99.90;;;;;;4929294;29;20039;-80
2021/05/25 05:12:02;;;;;;;2.90;0.80;;;8.50;99.90;;;;;;4943449;29;20048;-81
2021/05/25 05:14:28;;;;;;;2.80;0.60;;;8.50;99.90;;;;;;4931026;29;20039;-80
2021/05/25 05:16:54;;;;;;;1.92;0.68;;;8.60;99.90;;;;;;4948137;29;20106;-79
2021/05/25 05:19:19;;;;;;;2.38;0.68;;;8.60;99.90;;;;;;4947547;29;20055;-81
2021/05/25 05:21:45;;;;;;;2.70;0.80;;;8.70;99.90;;;;;;4946741;29;20128;-80
2021/05/25 05:24:11;;;;;;;2.10;0.88;;;8.70;99.90;;;;;;4933779;29;20075;-80
2021/05/25 05:26:36;;;;;;;1.88;0.90;;;8.80;99.90;;;;;;4962428;29;20043;-81
2021/05/25 05:29:03;;;;;;;3.22;1.00;;;8.90;99.90;;;;;;4947806;29;20019;-80
2021/05/25 05:31:29;;;;;;;1.70;1.13;;;8.90;99.90;;;;;;4946508;29;20049;-81
2021/05/25 05:33:54;;;;;;;2.58;1.00;;;8.80;99.90;;;;;;4946156;29;20028;-81
2021/05/25 05:36:20;;;;;;;2.67;0.90;;;8.80;99.90;;;;;;4946745;29;20036;-80
2021/05/25 05:38:46;;;;;;;3.38;1.25;;;9.00;99.90;;;;;;4946395;29;20039;-81
2021/05/25 05:41:13;;;;;;;3.28;1.10;;;9.00;99.90;;;;;;4946364;29;20095;-80
2021/05/25 05:43:39;;;;;;;3.50;1.25;;;8.90;99.90;;;;;;4946409;29;20040;-81
2021/05/25 05:46:04;;;;;;;4.78;1.35;;;8.90;99.90;;;;;;4930464;29;20054;-81
2021/05/25 05:48:30;;;;;;;2.90;1.23;;;8.90;99.90;;;;;;4945760;29;20477;-80
2021/05/25 05:50:56;;;;;;;2.95;1.35;;;9.00;99.90;;;;;;4962373;28;20087;-80
2021/05/25 05:53:23;;;;;;;2.80;1.95;;;9.00;99.90;;;;;;4943106;29;20386;-80
2021/05/25 05:55:49;;;;;;;2.92;1.65;;;9.00;99.90;;;;;;4940622;29;20043;-80
2021/05/25 05:58:15;;;;;;;5.38;1.80;;;9.10;99.90;;;;;;4928199;29;20028;-79
2021/05/25 06:00:42;;;;;;;2.53;1.77;;;9.20;99.90;;;;;;4927343;29;20476;-80
2021/05/25 06:03:11;;;;;;;2.33;1.48;;;9.20;99.90;;;;;;4928087;29;20214;-80
2021/05/25 06:05:37;;;;;;;2.03;1.13;;;9.30;99.90;;;;;;4928357;29;20235;-80
2021/05/25 06:08:08;;;;;;;3.33;1.55;;;9.30;99.90;;;;;;4928210;29;20032;-80
2021/05/25 06:10:35;;;;;;;4.57;2.35;;;9.40;99.90;;;;;;4928066;29;20068;-80
2021/05/25 06:13:01;;;;;;;4.03;2.30;;;9.30;99.90;;;;;;4935429;29;20035;-80
2021/05/25 06:15:27;;;;;;;5.28;3.13;;;9.40;99.90;;;;;;4961690;29;20047;-79
2021/05/25 06:17:53;;;;;;;4.97;2.13;;;9.30;99.90;;;;;;4945526;29;20035;-80
2021/05/25 06:20:19;;;;;;;4.25;2.80;;;9.40;99.90;;;;;;4944451;29;20035;-80
2021/05/25 06:22:45;;;;;;;6.55;5.15;;;9.30;99.90;;;;;;4926734;29;20036;-79
2021/05/25 06:25:13;;;;;;;5.90;5.00;;;9.00;99.90;;;;;;4949554;29;20028;-79
2021/05/25 06:27:40;;;;;;;6.07;5.15;;;9.10;99.90;;;;;;4929642;29;20042;-80
2021/05/25 06:30:08;;;;;;;7.47;5.53;;;9.10;99.90;;;;;;4929704;29;20039;-80
2021/05/25 06:32:35;;;;;;;7.10;4.68;;;9.10;99.90;;;;;;4945319;29;20032;-80
2021/05/25 06:35:01;;;;;;;9.73;5.53;;;9.20;99.90;;;;;;4945748;29;20135;-80
2021/05/25 06:37:27;;;;;;;8.07;5.30;;;9.30;99.90;;;;;;4947194;29;20032;-79
2021/05/25 06:39:53;;;;;;;6.18;4.13;;;9.30;99.90;;;;;;4945725;29;20023;-78
2021/05/25 06:42:19;;;;;;;5.43;4.90;;;9.50;99.90;;;;;;4946986;29;20031;-80
2021/05/25 06:44:45;;;;;;;5.20;4.32;;;9.50;99.90;;;;;;4945665;29;20042;-80
2021/05/25 06:47:10;;;;;;;6.03;3.72;;;9.50;99.90;;;;;;4946635;29;20059;-80
2021/05/25 06:49:36;;;;;;;6.70;4.68;;;9.60;99.90;;;;;;4961730;29;20058;-79
2021/05/25 06:52:02;;;;;;;5.50;4.30;;;9.60;99.90;;;;;;4961594;29;20027;-80
2021/05/25 06:54:29;;;;;;;6.00;5.15;;;9.60;99.90;;;;;;4946866;29;20408;-80
2021/05/25 06:57:15;;;;;;;6.80;5.25;;;9.70;99.90;;;;;;4946859;29;20406;-80
2021/05/25 06:59:41;;;;;;;4.70;4.30;;;9.60;99.90;;;;;;4906471;29;20040;-80
2021/05/25 07:02:07;;;;;;;6.53;5.75;;;9.80;99.90;;;;;;4906314;29;20048;-80
2021/05/25 07:04:32;;;;;;;5.35;4.35;;;9.70;99.90;;;;;;4906358;29;20180;-80
2021/05/25 07:06:58;;;;;;;7.40;5.20;;;9.70;99.90;;;;;;4907990;29;20044;-80
2021/05/25 07:09:24;;;;;;;7.88;4.90;;;9.80;99.90;;;;;;4909722;29;20033;-79
2021/05/25 07:11:50;;;;;;;4.93;3.78;;;9.80;99.90;;;;;;4909772;29;20101;-80
2021/05/25 07:14:15;;;;;;;5.28;4.53;;;10.00;99.90;;;;;;4909809;29;20033;-80
2021/05/25 07:16:41;;;;;;;5.80;5.03;;;10.30;99.90;;;;;;4893859;29;20079;-80
2021/05/25 07:19:07;;;;;;;7.00;5.57;;;10.20;99.90;;;;;;4909631;29;20087;-80
2021/05/25 07:21:33;;;;;;;5.32;3.70;;;10.20;99.90;;;;;;4894257;29;20560;-80
2021/05/25 07:23:58;;;;;;;5.55;4.85;;;10.20;99.90;;;;;;4903302;29;20084;-80
2021/05/25 07:26:24;;;;;;;6.47;4.55;;;10.30;99.90;;;;;;4896942;29;20044;-80
2021/05/25 07:28:52;;;;;;;4.95;4.43;;;10.20;99.90;;;;;;4912551;29;20051;-81
2021/05/25 07:31:18;;;;;;;7.25;5.63;;;10.20;99.90;;;;;;4911620;29;20036;-80
2021/05/25 07:33:45;;;;;;;7.68;5.40;;;10.20;99.90;;;;;;4893775;29;20080;-80
2021/05/25 07:36:11;;;;;;;7.65;6.10;;;10.20;99.90;;;;;;4919660;29;20043;-81
2021/05/25 07:38:37;;;;;;;7.72;5.88;;;10.10;99.90;;;;;;4949841;29;20090;-81
2021/05/25 07:41:03;;;;;;;8.90;6.70;;;10.10;99.90;;;;;;4948415;29;20055;-80
2021/05/25 07:43:30;;;;;;;9.07;6.90;;;10.30;99.90;;;;;;4948491;29;20102;-80
2021/05/25 07:45:56;;;;;;;7.63;6.22;;;10.50;99.90;;;;;;4949744;29;20477;-80
2021/05/25 07:48:23;;;;;;;7.70;6.78;;;10.50;99.90;;;;;;4948476;29;20048;-79
2021/05/25 07:50:49;;;;;;;6.57;5.65;;;10.30;99.90;;;;;;4949843;29;20039;-79
2021/05/25 07:53:14;;;;;;;5.43;4.75;;;10.60;99.90;;;;;;4932556;29;20054;-79
2021/05/25 07:55:40;;;;;;;6.35;5.68;;;10.80;99.90;;;;;;4932563;29;20031;-80
2021/05/25 07:58:06;;;;;;;8.57;5.20;;;10.60;99.90;;;;;;4932411;29;20036;-80
2021/05/25 08:00:32;;;;;;;5.78;5.18;;;10.70;99.90;;;;;;4949482;29;20043;-79
2021/05/25 08:02:59;;;;;;;3.90;3.40;;;11.00;99.90;;;;;;4948412;29;20094;-79
2021/05/25 08:05:25;;;;;;;6.53;5.63;;;11.30;99.90;;;;;;4948097;29;20066;-80
2021/05/25 08:07:51;;;;;;;5.18;4.43;;;11.40;99.90;;;;;;4948010;29;20039;-80
2021/05/25 08:10:18;;;;;;;9.43;6.38;;;11.60;99.90;;;;;;4931945;29;20130;-79
2021/05/25 08:12:44;;;;;;;7.90;6.05;;;11.20;99.90;;;;;;4948070;29;20560;-79
2021/05/25 08:15:13;;;;;;;8.13;6.82;;;10.50;99.90;;;;;;4931921;29;20035;-80
2021/05/25 08:18:02;;;;;;;8.15;6.78;;;10.70;99.90;;;;;;4931738;29;20039;-80
2021/05/25 08:20:28;;;;;;;6.80;6.13;;;11.00;99.90;;;;;;4947817;29;20036;-78
2021/05/25 08:22:57;;;;;;;7.53;6.60;;;11.10;99.90;;;;;;4947784;29;20067;-78
2021/05/25 08:25:27;;;;;;;5.88;5.28;;;11.20;99.90;;;;;;4947575;29;20047;-78
2021/05/25 08:27:54;;;;;;;7.72;5.43;;;11.30;99.90;;;;;;4949175;29;20075;-78
2021/05/25 08:30:23;;;;;;;15.50;7.13;;;11.30;99.90;;;;;;4948769;29;20125;-78
2021/05/25 08:32:52;;;;;;;8.30;6.20;;;11.20;99.90;;;;;;4947417;29;20040;-78
2021/05/25 08:35:19;;;;;;;7.67;6.70;;;11.10;99.90;;;;;;4963371;29;20114;-78
2021/05/25 08:37:47;;;;;;;6.78;5.97;;;11.00;99.90;;;;;;4947495;29;20354;-78
2021/05/25 08:40:14;;;;;;;5.90;5.10;;;11.10;99.90;;;;;;4963427;29;20047;-79
2021/05/25 08:42:40;;;;;;;7.85;5.55;;;11.50;99.90;;;;;;4947370;29;20060;-77
2021/05/25 08:45:07;;;;;;;7.15;5.95;;;11.20;99.90;;;;;;4947262;29;20043;-78
2021/05/25 08:47:37;;;;;;;6.82;4.80;;;11.80;99.90;;;;;;4931255;29;20055;-77
2021/05/25 08:50:09;;;;;;;6.90;6.00;;;12.00;99.90;;;;;;4963330;29;20035;-77
2021/05/25 08:52:35;;;;;;;6.70;4.47;;;11.90;99.90;;;;;;4963322;29;20063;-77
2021/05/25 08:55:02;;;;;;;5.07;3.80;;;12.20;99.90;;;;;;4947417;29;20074;-77
2021/05/25 08:57:28;;;;;;;6.55;4.30;;;12.60;99.90;;;;;;4963121;29;20043;-78
2021/05/25 08:59:53;;;;;;;3.72;2.88;;;13.20;99.90;;;;;;4947034;29;20031;-78
2021/05/25 09:02:19;;;;;;;5.47;3.38;;;13.50;99.90;;;;;;4963188;29;20075;-78
2021/05/25 09:04:58;;;;;;;3.40;2.10;;;14.10;99.90;;;;;;4963218;29;20403;-78
2021/05/25 09:07:48;;;;;;;3.20;2.35;;;13.40;99.90;;;;;;4947018;29;20039;-78
2021/05/25 09:10:19;;;;;;;5.15;1.10;;;12.60;99.90;;;;;;4946802;29;20399;-79
2021/05/25 09:12:51;;;;;;;4.43;1.15;;;12.60;99.90;;;;;;4946882;29;20040;-78
2021/05/25 09:15:34;;;;;;;4.35;1.00;;;12.40;99.90;;;;;;4946529;29;20031;-78
2021/05/25 09:18:07;;;;;;;6.05;1.23;;;12.80;99.90;;;;;;4946442;29;20135;-78
2021/05/25 09:20:38;;;;;;;5.57;1.45;;;13.20;99.90;;;;;;4948177;29;20047;-78
2021/05/25 09:23:04;;;;;;;6.72;1.50;;;12.90;99.90;;;;;;4946497;29;20104;-78
2021/05/25 09:25:30;;;;;;;3.97;0.85;;;12.90;99.90;;;;;;4946757;29;20048;-79
2021/05/25 09:28:10;;;;;;;1.88;0.30;;;12.60;99.90;;;;;;4946632;29;20032;-78
2021/05/25 09:30:37;;;;;;;1.67;0.10;;;11.90;99.90;;;;;;4945847;29;20051;-79
2021/05/25 09:33:09;;;;;;;1.42;0.10;;;11.10;99.90;;;;;;4946373;29;20392;-79
2021/05/25 09:35:42;;;;;;;1.13;0.10;;;10.80;99.90;;;;;;4962474;29;20039;-80
2021/05/25 09:38:08;;;;;;;1.38;0.10;;;10.50;99.90;;;;;;4930842;29;20596;-78
2021/05/25 09:40:35;;;;;;;0.98;0.10;;;9.90;99.90;;;;;;4963111;29;20069;-80
2021/05/25 09:43:21;;;;;;;1.23;0.10;;;9.60;99.90;;;;;;4948220;29;20050;-79
2021/05/25 09:46:02;;;;;;;1.40;0.10;;;9.50;99.90;;;;;;4964498;29;20047;-80
2021/05/25 09:48:51;;;;;;;0.75;0.10;;;9.40;99.90;;;;;;4946283;29;20070;-79
2021/05/25 09:51:25;;;;;;;1.45;0.22;;;9.50;99.90;;;;;;4962529;29;20555;-79
2021/05/25 09:53:51;;;;;;;3.67;0.10;;;9.70;99.90;;;;;;4946708;29;20035;-79
2021/05/25 09:56:28;;;;;;;1.20;0.10;;;10.00;99.90;;;;;;4946483;29;20043;-80
2021/05/25 09:58:59;;;;;;;1.55;0.10;;;10.40;99.90;;;;;;4930460;29;20031;-79
2021/05/25 10:01:36;;;;;;;1.00;0.10;;;10.50;99.90;;;;;;4947593;29;20184;-79
2021/05/25 10:04:13;;;;;;;0.43;0.10;;;10.40;99.90;;;;;;4946453;29;20036;-79
2021/05/25 10:06:45;;;;;;;1.33;0.20;;;10.70;99.90;;;;;;4946081;29;20480;-78
2021/05/25 10:09:11;;;;;;;1.38;0.20;;;10.70;99.90;;;;;;4946157;29;20034;-79
2021/05/25 10:11:47;;;;;;;2.72;0.10;;;10.90;99.90;;;;;;4947470;29;20094;-79
2021/05/25 10:14:14;;;;;;;2.75;0.20;;;11.00;99.90;;;;;;4930815;29;20036;-79
2021/05/25 10:16:43;;;;;;;1.77;0.20;;;11.40;99.90;;;;;;4947288;29;20130;-80
2021/05/25 10:21:38;;;;;;;1.13;0.20;;;12.00;99.90;;;;;;4947344;29;20031;-79
2021/05/25 10:24:05;;;;;;;2.05;0.38;;;12.10;99.90;;;;;;4947200;29;20043;-79
2021/05/25 10:26:31;;;;;;;2.65;0.40;;;12.20;99.90;;;;;;4946034;29;20043;-79
2021/05/25 10:28:57;;;;;;;2.92;0.30;;;12.10;99.90;;;;;;4947089;29;20032;-80
2021/05/25 10:31:29;;;;;;;1.85;0.30;;;12.10;99.90;;;;;;4945855;29;20028;-79
2021/05/25 10:34:16;;;;;;;1.92;0.77;;;12.10;99.90;;;;;;4930015;29;20038;-78
2021/05/25 10:36:53;;;;;;;4.30;0.80;;;12.10;99.90;;;;;;4961695;29;20024;-78
2021/05/25 10:39:40;;;;;;;7.28;1.00;;;12.20;99.90;;;;;;4947223;29;20032;-78
2021/05/25 10:42:18;;;;;;;4.07;0.70;;;12.30;99.90;;;;;;4948033;29;20035;-79
2021/05/25 10:44:59;;;;;;;7.15;1.52;;;12.60;99.90;;;;;;4949537;29;20048;-78
2021/05/25 10:47:49;;;;;;;7.90;1.30;;;12.50;99.90;;;;;;4965361;29;20051;-79
2021/05/25 10:50:27;;;;;;;3.25;0.90;;;12.30;99.90;;;;;;4950977;29;20051;-79
2021/05/25 10:52:59;;;;;;;3.58;0.75;;;11.80;99.90;;;;;;4933671;29;20032;-78
2021/05/25 10:55:32;;;;;;;3.05;0.75;;;11.40;99.90;;;;;;4965396;29;20031;-80
2021/05/25 10:58:00;;;;;;;3.40;0.50;;;10.90;99.90;;;;;;4950537;29;20035;-79
2021/05/25 11:00:41;;;;;;;3.50;0.60;;;10.60;99.90;;;;;;4965259;29;20059;-79
2021/05/25 11:03:13;;;;;;;3.33;0.80;;;10.50;99.90;;;;;;4965376;29;20095;-79
2021/05/25 11:05:38;;;;;;;4.93;1.00;;;10.50;99.90;;;;;;4949244;29;20187;-80
2021/05/25 11:08:07;;;;;;;4.13;0.90;;;10.50;99.90;;;;;;4950494;29;20112;-79
2021/05/25 11:10:37;;;;;;;3.67;1.30;;;10.60;99.90;;;;;;4950453;29;20046;-80
2021/05/25 11:13:18;;;;;;;3.72;0.82;;;10.90;99.90;;;;;;4965261;29;20131;-80
2021/05/25 11:16:03;;;;;;;4.20;1.10;;;11.10;99.90;;;;;;4949397;29;20099;-79
2021/05/25 11:18:37;;;;;;;2.13;1.05;;;11.30;99.90;;;;;;4964831;29;20047;-79
2021/05/25 11:23:43;;;;;;;4.60;1.67;;;11.70;99.90;;;;;;4965148;29;20035;-80
2021/05/25 11:26:10;;;;;;;7.53;2.55;;;12.00;99.90;;;;;;4949519;29;20044;-80
2021/05/25 11:29:18;;;;;;;8.15;2.20;;;12.50;99.90;;;;;;4948786;29;20036;-80
2021/05/25 11:31:44;;;;;;;7.50;1.73;;;13.00;99.90;;;;;;4932592;29;20112;-80
2021/05/25 11:34:09;;;;;;;12.82;1.63;;;13.80;99.90;;;;;;4949966;29;20032;-80
2021/05/25 11:36:35;;;;;;;4.28;0.60;;;14.30;99.90;;;;;;4948506;29;20103;-80
2021/05/25 11:39:08;;;;;;;4.60;0.60;;;13.90;99.90;;;;;;4949808;29;20024;-81
2021/05/25 11:41:34;;;;;;;4.55;0.98;;;14.10;99.90;;;;;;4950254;29;20035;-80
2021/05/25 11:44:10;;;;;;;1.48;0.40;;;14.20;99.90;;;;;;4950054;29;20063;-80
2021/05/25 11:46:40;;;;;;;2.55;0.30;;;14.10;99.90;;;;;;4949914;29;20049;-80
2021/05/25 11:49:07;;;;;;;5.28;0.55;;;14.70;99.90;;;;;;4947932;29;20055;-80
2021/05/25 11:51:33;;;;;;;2.35;0.40;;;14.50;99.90;;;;;;4949828;29;20044;-80
2021/05/25 11:54:13;;;;;;;3.33;0.30;;;14.70;99.90;;;;;;4949026;29;20059;-79
2021/05/25 11:56:41;;;;;;;4.45;0.38;;;15.10;99.90;;;;;;4949918;29;20072;-80
2021/05/25 11:59:15;;;;;;;3.53;0.40;;;14.40;99.90;;;;;;4948279;29;20032;-79
2021/05/25 12:01:54;;;;;;;4.72;0.32;;;14.10;99.90;;;;;;4949707;29;20063;-79
2021/05/25 12:04:21;;;;;;;5.57;0.40;;;14.20;99.90;;;;;;4949575;29;20035;-79
2021/05/25 12:06:58;;;;;;;4.80;0.38;;;14.00;99.90;;;;;;4948102;29;20039;-81
2021/05/25 12:09:30;;;;;;;1.88;0.30;;;14.40;99.90;;;;;;4947876;29;20039;-79
2021/05/25 12:11:57;;;;;;;2.88;0.30;;;14.40;99.90;;;;;;4947879;29;20066;-79
2021/05/25 12:14:32;;;;;;;1.83;0.20;;;14.40;99.90;;;;;;4948062;29;20032;-80
2021/05/25 12:16:59;;;;;;;1.58;0.20;;;14.00;99.90;;;;;;4948025;29;20040;-79
2021/05/25 12:19:26;;;;;;;1.73;0.20;;;13.50;99.90;;;;;;4947183;29;20040;-79
2021/05/25 12:22:07;;;;;;;3.63;0.30;;;13.50;99.90;;;;;;4947339;29;20437;-79
2021/05/25 12:24:35;;;;;;;3.33;0.20;;;14.10;99.90;;;;;;4947745;29;20075;-79
2021/05/25 12:27:01;;;;;;;3.10;0.30;;;14.30;99.90;;;;;;4931800;29;20048;-79
2021/05/25 12:29:27;;;;;;;2.00;0.20;;;14.00;99.90;;;;;;4947464;29;20039;-79
2021/05/25 12:31:54;;;;;;;2.67;0.50;;;14.00;99.90;;;;;;4944799;29;20035;-78
2021/05/25 12:34:21;;;;;;;2.28;0.20;;;13.60;99.90;;;;;;4963583;29;20079;-78
2021/05/25 12:36:58;;;;;;;3.75;0.40;;;13.40;99.90;;;;;;4931532;29;20039;-79
2021/05/25 12:39:39;;;;;;;2.72;0.20;;;13.40;99.90;;;;;;4931446;29;20040;-77
2021/05/25 12:42:18;;;;;;;2.08;0.22;;;13.20;99.90;;;;;;4948683;29;20028;-78
2021/05/25 12:44:44;;;;;;;3.20;0.30;;;13.10;99.90;;;;;;4948525;29;20032;-78
2021/05/25 12:47:14;;;;;;;2.63;0.20;;;13.00;99.90;;;;;;4947027;29;20544;-78
2021/05/25 12:49:43;;;;;;;1.27;0.10;;;12.40;99.90;;;;;;4948322;29;20074;-77
2021/05/25 12:52:26;;;;;;;2.30;0.10;;;12.20;99.90;;;;;;4947377;29;20039;-78
2021/05/25 12:55:00;;;;;;;2.17;0.10;;;12.20;99.90;;;;;;4963041;29;20490;-78
2021/05/25 12:57:47;;;;;;;0.65;0.10;;;12.30;99.90;;;;;;4963095;29;20036;-78
2021/05/25 13:00:25;;;;;;;2.13;0.10;;;12.20;99.90;;;;;;4947924;29;20132;-78
2021/05/25 13:02:51;;;;;;;3.70;0.10;;;12.00;99.90;;;;;;4948362;29;20032;-78
2021/05/25 13:05:43;;;;;;;0.60;0.10;;;11.90;99.90;;;;;;4946638;29;20030;-78